Time;durP1;ratioP1;P1;durP2;ratioP2;P2;SDS_P1;SDS_P2;PMS_P1;PMS_P2;Temp;Humidity;BMP_temperature;BMP_pressure;BME280_temperature;BME280_humidity;BME280_pressure;Samples;Min_cycle;Max_cycle;Signal;HPM_P1;HPM_P2
2021/04/19 00:01:49;;;;;;;20.92;10.13;;;;;;;6.54;78.46;99059.91;5050662;28;20078;-67
2021/04/19 00:04:15;;;;;;;17.52;9.95;;;;;;;6.52;78.58;99044.94;5048195;28;20476;-68
2021/04/19 00:06:40;;;;;;;19.42;10.82;;;;;;;6.44;79.17;99053.03;5035511;28;20721;-67
2021/04/19 00:09:05;;;;;;;18.20;9.15;;;;;;;6.41;78.93;99054.22;5029780;28;20120;-68
2021/04/19 00:11:31;;;;;;;19.08;10.10;;;;;;;6.33;79.39;99052.38;5029352;28;20072;-68
2021/04/19 00:13:56;;;;;;;18.00;10.43;;;;;;;6.32;79.51;99049.88;5029929;28;20431;-67
2021/04/19 00:16:22;;;;;;;24.10;10.45;;;;;;;6.34;79.49;99042.47;5036932;28;20116;-68
2021/04/19 00:18:47;;;;;;;20.15;10.88;;;;;;;6.34;79.60;99050.53;5048092;28;20471;-67
2021/04/19 00:21:12;;;;;;;21.42;10.27;;;;;;;6.38;79.07;99021.47;5046343;28;20132;-67
2021/04/19 00:23:38;;;;;;;18.20;10.32;;;;;;;6.53;79.21;99041.28;5040283;28;20143;-67
2021/04/19 00:26:03;;;;;;;19.52;10.43;;;;;;;6.47;78.94;99045.50;5040634;28;20450;-67
2021/04/19 00:28:29;;;;;;;17.90;10.13;;;;;;;6.46;79.42;99041.09;5052322;28;20040;-67
2021/04/19 00:30:55;;;;;;;24.63;11.77;;;;;;;6.43;79.15;99040.63;5054733;28;20049;-67
2021/04/19 00:33:20;;;;;;;19.23;10.23;;;;;;;6.36;79.45;99046.66;5049257;28;20175;-67
2021/04/19 00:35:45;;;;;;;20.05;9.77;;;;;;;6.32;80.12;99039.97;5048332;28;20035;-67
2021/04/19 00:38:11;;;;;;;19.00;10.80;;;;;;;6.26;80.09;99039.78;5049660;28;20052;-67
2021/04/19 00:40:38;;;;;;;20.35;10.77;;;;;;;6.30;79.58;99041.97;5032063;28;20056;-68
2021/04/19 00:43:03;;;;;;;18.85;10.18;;;;;;;6.18;79.20;99019.13;5035455;28;20086;-67
2021/04/19 00:45:29;;;;;;;27.00;12.38;;;;;;;6.25;79.11;99041.63;5050798;28;20024;-67
2021/04/19 00:47:54;;;;;;;21.00;11.23;;;;;;;6.25;78.71;99038.13;5050203;28;20044;-67
2021/04/19 00:50:23;;;;;;;20.15;11.30;;;;;;;6.25;79.19;99038.94;5030591;28;20037;-68
2021/04/19 00:52:49;;;;;;;22.23;11.63;;;;;;;6.23;78.89;99040.97;5050438;28;20479;-67
2021/04/19 00:55:15;;;;;;;17.95;10.15;;;;;;;6.20;79.68;99038.63;5049467;28;20033;-67
2021/04/19 00:57:42;;;;;;;16.70;10.65;;;;;;;6.18;79.95;99027.19;5048541;28;20516;-67
2021/04/19 01:00:12;;;;;;;16.98;9.90;;;;;;;6.23;79.78;99032.06;5041450;28;20467;-67
2021/04/19 01:02:39;;;;;;;21.63;10.05;;;;;;;6.14;80.20;99031.25;5033950;28;20108;-67
2021/04/19 01:05:18;;;;;;;21.52;10.35;;;;;;;6.28;79.36;99033.22;5015428;28;20024;-67
2021/04/19 01:07:43;;;;;;;18.80;10.77;;;;;;;6.33;78.58;99014.75;5017573;28;20033;-68
2021/04/19 01:10:09;;;;;;;19.35;10.95;;;;;;;6.45;78.49;99033.22;5027000;28;20287;-68
2021/04/19 01:12:34;;;;;;;16.80;10.02;;;;;;;6.46;78.47;99034.91;5048080;28;20038;-67
2021/04/19 01:14:59;;;;;;;19.20;11.82;;;;;;;6.31;79.47;99038.28;5031874;28;20033;-67
2021/04/19 01:17:25;;;;;;;23.27;11.10;;;;;;;6.30;79.24;99033.91;5034247;28;20025;-67
2021/04/19 01:19:50;;;;;;;23.50;10.80;;;;;;;6.23;79.71;99026.69;5048187;28;20132;-67
2021/04/19 01:22:16;;;;;;;20.50;10.95;;;;;;;6.18;79.89;99021.81;5038968;28;20022;-67
2021/04/19 01:24:42;;;;;;;20.75;11.63;;;;;;;6.25;79.96;99033.59;5049705;28;20119;-67
2021/04/19 01:27:07;;;;;;;19.40;10.63;;;;;;;6.29;79.66;99034.09;5048127;28;20025;-67
2021/04/19 01:29:33;;;;;;;25.00;10.82;;;;;;;6.26;79.34;99021.84;5048550;28;20043;-68
2021/04/19 01:31:59;;;;;;;19.90;10.77;;;;;;;6.38;78.99;99032.22;5040241;28;20056;-67
2021/04/19 01:34:24;;;;;;;18.30;11.00;;;;;;;6.44;79.46;99036.91;5033543;28;20033;-69
2021/04/19 01:36:50;;;;;;;16.98;10.02;;;;;;;6.49;78.18;99035.38;5042760;28;20059;-67
2021/04/19 01:39:17;;;;;;;18.38;10.57;;;;;;;6.48;77.58;99032.88;5042611;28;20040;-67
2021/04/19 01:41:44;;;;;;;19.23;10.07;;;;;;;6.44;77.40;99004.66;5028986;28;20530;-68
2021/04/19 01:44:10;;;;;;;19.08;9.75;;;;;;;6.50;77.74;99014.75;5045587;28;20025;-68
2021/04/19 01:46:36;;;;;;;18.30;9.55;;;;;;;6.39;78.00;99010.53;5039718;28;20032;-68
2021/04/19 01:49:10;;;;;;;17.42;10.07;;;;;;;6.68;77.64;99015.34;5031888;28;20075;-67
2021/04/19 01:51:35;;;;;;;16.70;9.85;;;;;;;6.69;76.98;99022.41;5049977;28;20048;-67
2021/04/19 01:54:00;;;;;;;19.15;10.95;;;;;;;6.44;77.76;99002.81;5033516;28;20075;-70
2021/04/19 01:56:26;;;;;;;20.65;10.60;;;;;;;6.44;77.59;99020.78;5038521;28;20144;-70
2021/04/19 01:58:51;;;;;;;19.35;10.48;;;;;;;6.39;78.39;99013.22;5050009;28;20021;-70
2021/04/19 02:01:16;;;;;;;17.20;9.45;;;;;;;6.34;79.06;99021.81;5028040;28;20067;-70
2021/04/19 02:03:57;;;;;;;17.30;9.13;;;;;;;6.25;80.25;99016.63;5029957;28;20120;-67
2021/04/19 02:06:36;;;;;;;17.48;10.02;;;;;;;6.12;80.29;99003.72;5050082;28;20048;-67
2021/04/19 02:09:08;;;;;;;22.17;11.23;;;;;;;6.14;80.60;99020.50;5048962;28;20048;-67
2021/04/19 02:11:53;;;;;;;17.35;10.07;;;;;;;6.19;79.94;99026.22;5046559;28;20055;-68
2021/04/19 02:14:18;;;;;;;20.83;10.57;;;;;;;6.21;79.57;99015.28;5039854;28;20028;-68
2021/04/19 02:16:55;;;;;;;22.05;10.90;;;;;;;6.14;79.35;99005.22;5047005;28;20051;-67
2021/04/19 02:19:42;;;;;;;20.80;11.02;;;;;;;6.20;78.75;99009.06;5047460;28;20048;-68
2021/04/19 02:22:15;;;;;;;21.83;11.82;;;;;;;6.19;78.20;98999.34;5038053;28;20131;-67
2021/04/19 02:24:49;;;;;;;19.20;11.00;;;;;;;6.18;78.44;99004.88;5037407;28;20086;-67
2021/04/19 02:27:26;;;;;;;18.98;10.73;;;;;;;6.10;78.64;98993.16;5048618;28;20653;-67
2021/04/19 02:29:55;;;;;;;24.15;11.35;;;;;;;6.01;79.18;98990.63;5030051;28;20541;-67
2021/04/19 02:32:34;;;;;;;20.90;11.15;;;;;;;6.12;78.15;99007.22;5047473;28;20048;-67
2021/04/19 02:35:07;;;;;;;20.20;11.60;;;;;;;6.14;77.76;99009.75;5044474;28;20031;-68
2021/04/19 02:37:35;;;;;;;19.35;11.30;;;;;;;6.19;77.62;99012.78;5049602;28;20035;-69
2021/04/19 02:40:04;;;;;;;20.98;11.35;;;;;;;6.15;77.29;99006.88;5034724;28;20111;-70
2021/04/19 02:42:34;;;;;;;;;;;;;;;6.25;77.64;99009.41;5048836;28;20060;-70
2021/04/19 02:45:01;;;;;;;19.27;10.27;;;;;;;6.21;77.68;99012.59;5030615;28;19923;-70
2021/04/19 02:47:26;;;;;;;22.10;11.27;;;;;;;6.30;77.36;99008.91;5049284;28;20376;-70
2021/04/19 02:49:52;;;;;;;20.10;11.70;;;;;;;6.22;77.47;99004.38;5031183;28;20025;-70
2021/04/19 02:52:18;;;;;;;19.60;11.45;;;;;;;6.21;76.98;99000.03;5032162;28;20041;-70
2021/04/19 02:54:45;;;;;;;19.08;10.82;;;;;;;6.30;77.56;99016.97;5039269;28;20040;-69
2021/04/19 02:57:25;;;;;;;21.63;10.38;;;;;;;6.30;77.22;99004.34;5049623;28;20029;-70
2021/04/19 02:59:52;;;;;;;19.98;11.38;;;;;;;6.31;76.89;99011.41;5031361;28;20411;-70
2021/04/19 03:02:21;;;;;;;17.33;10.85;;;;;;;6.44;76.20;99015.41;5030902;28;20041;-67
2021/04/19 03:04:47;;;;;;;22.80;11.70;;;;;;;6.33;76.38;99008.53;5036130;28;20037;-68
2021/04/19 03:07:13;;;;;;;20.38;10.95;;;;;;;6.30;76.73;98998.97;5044155;28;20124;-67
2021/04/19 03:09:44;;;;;;;21.35;11.40;;;;;;;6.45;76.23;99011.72;5047195;28;20031;-67
2021/04/19 03:12:12;;;;;;;17.98;10.65;;;;;;;6.42;77.14;99006.66;5048836;28;20037;-67
2021/04/19 03:14:45;;;;;;;22.67;11.50;;;;;;;6.36;77.25;99009.03;5029588;28;20054;-67
2021/04/19 03:17:14;;;;;;;20.30;11.15;;;;;;;6.40;77.10;99008.72;5044600;28;20561;-68
2021/04/19 03:19:47;;;;;;;17.05;10.48;;;;;;;6.38;77.29;99013.41;5039396;28;20025;-68
2021/04/19 03:22:13;;;;;;;19.40;10.93;;;;;;;6.38;76.94;98995.44;5040832;28;20026;-68
2021/04/19 03:24:40;;;;;;;24.50;11.10;;;;;;;6.52;76.42;99013.56;5036245;28;20071;-71
2021/04/19 03:27:06;;;;;;;18.75;10.88;;;;;;;6.48;76.08;98997.94;5047822;28;20025;-74
2021/04/19 03:29:33;;;;;;;21.17;11.55;;;;;;;6.39;76.83;98994.41;5051835;28;20021;-71
2021/04/19 03:32:05;;;;;;;19.83;11.32;;;;;;;6.39;76.92;98996.28;5048451;28;20033;-70
2021/04/19 03:34:35;;;;;;;22.60;11.55;;;;;;;6.36;76.87;99000.13;5022954;28;20032;-68
2021/04/19 03:37:05;;;;;;;;;;;;;;;6.35;76.99;99004.69;5048350;28;20108;-69
2021/04/19 03:39:32;;;;;;;20.77;12.25;;;;;;;6.31;76.78;98999.81;5037045;28;19920;-69
2021/04/19 03:41:59;;;;;;;22.92;12.00;;;;;;;6.28;77.08;98990.25;5042619;28;20529;-70
2021/04/19 03:44:28;;;;;;;23.27;12.30;;;;;;;6.40;77.15;99003.34;5042725;28;20106;-70
2021/04/19 03:46:56;;;;;;;18.90;11.07;;;;;;;6.45;77.80;98998.28;5049001;28;20058;-70
2021/04/19 03:49:38;;;;;;;21.67;11.02;;;;;;;6.21;78.23;98967.78;5048090;28;20060;-71
2021/04/19 03:52:07;;;;;;;17.60;10.15;;;;;;;6.38;77.79;98991.91;5034622;28;20038;-72
2021/04/19 03:54:35;;;;;;;22.90;11.77;;;;;;;6.32;77.73;98969.25;5051096;28;20536;-72
2021/04/19 03:57:03;;;;;;;19.77;11.20;;;;;;;6.23;77.49;98964.91;5038725;28;20092;-72
2021/04/19 03:59:33;;;;;;;18.05;10.95;;;;;;;6.39;77.48;98994.41;5046469;28;20052;-72
2021/04/19 04:02:01;;;;;;;21.13;11.23;;;;;;;6.42;77.75;98991.41;5023434;28;20036;-72
2021/04/19 04:04:27;;;;;;;24.10;12.13;;;;;;;6.39;77.56;98991.72;5048067;28;20021;-71
2021/04/19 04:06:53;;;;;;;22.00;11.10;;;;;;;6.32;78.14;98980.84;5049557;28;20083;-73
2021/04/19 04:09:19;;;;;;;21.83;11.52;;;;;;;6.32;77.64;98982.69;5049264;28;20017;-73
2021/04/19 04:11:45;;;;;;;21.33;11.27;;;;;;;6.39;77.53;98996.28;5012765;28;20044;-72
2021/04/19 04:14:10;;;;;;;20.02;12.15;;;;;;;6.28;77.57;98979.50;5049726;28;20115;-72
2021/04/19 04:16:41;;;;;;;19.58;11.10;;;;;;;6.45;77.35;98990.22;5049185;28;20036;-72
2021/04/19 04:19:07;;;;;;;20.50;11.55;;;;;;;6.43;77.82;98998.44;5021270;28;20108;-73
2021/04/19 04:21:33;;;;;;;19.17;10.88;;;;;;;6.43;78.15;99005.69;5027504;28;20518;-72
2021/04/19 04:23:58;;;;;;;17.95;11.07;;;;;;;6.31;78.50;98986.38;5043577;28;20031;-72
2021/04/19 04:26:24;;;;;;;19.50;10.25;;;;;;;6.38;78.40;98998.13;5031933;28;20021;-73
2021/04/19 04:28:50;;;;;;;26.33;11.90;;;;;;;6.40;78.38;98997.97;5031350;28;20108;-74
2021/04/19 04:31:15;;;;;;;23.65;11.82;;;;;;;6.35;77.93;98993.09;5041862;28;20393;-73
2021/04/19 04:33:40;;;;;;;23.42;12.30;;;;;;;6.33;79.02;98995.94;5016971;28;20466;-73
2021/04/19 04:36:06;;;;;;;22.85;12.32;;;;;;;6.42;79.21;99003.97;5044567;28;20486;-74
2021/04/19 04:38:32;;;;;;;19.08;10.70;;;;;;;6.47;79.02;99004.31;5044219;28;20037;-69
2021/04/19 04:40:57;;;;;;;21.50;11.95;;;;;;;6.41;78.65;98988.88;5034727;28;20025;-69
2021/04/19 04:43:27;;;;;;;21.35;11.43;;;;;;;6.33;79.76;98990.56;5029330;28;20041;-69
2021/04/19 04:45:58;;;;;;;;;;;;;;;6.43;80.01;98993.06;5044584;28;20021;-65
2021/04/19 04:48:41;;;;;;;20.17;12.05;;;;;;;6.40;79.42;99000.66;5050456;28;20665;-67
2021/04/19 04:51:13;;;;;;;21.88;11.88;;;;;;;6.44;79.37;98991.22;5051353;28;20033;-73
2021/04/19 04:53:45;;;;;;;21.73;12.02;;;;;;;6.36;79.35;98994.75;5051464;28;20028;-75
2021/04/19 04:56:13;;;;;;;22.50;13.30;;;;;;;6.33;79.06;99006.69;5049320;28;20029;-70
2021/04/19 04:58:42;;;;;;;20.88;12.27;;;;;;;6.36;78.90;99003.66;5036342;28;20079;-69
2021/04/19 05:01:08;;;;;;;;;;;;;;;6.56;78.06;99003.28;5041880;28;20086;-73
2021/04/19 05:03:37;;;;;;;21.10;11.95;;;;;;;6.63;78.54;99014.16;5051301;28;19908;-72
2021/04/19 05:06:06;;;;;;;22.10;12.23;;;;;;;6.59;79.98;98993.03;5039063;28;20072;-72
2021/04/19 05:08:32;;;;;;;23.27;11.52;;;;;;;6.47;80.84;99010.53;5053832;28;20033;-76
2021/04/19 05:10:57;;;;;;;24.80;12.02;;;;;;;6.25;81.70;98993.28;5040699;28;20607;-76
2021/04/19 05:13:23;;;;;;;27.70;12.65;;;;;;;6.11;82.58;98983.25;5051470;28;20112;-70
2021/04/19 05:15:50;;;;;;;21.73;12.20;;;;;;;6.09;82.59;99001.38;5054320;28;20028;-75
2021/04/19 05:18:17;;;;;;;21.15;12.50;;;;;;;6.19;83.32;99011.94;5053517;28;20024;-77
2021/04/19 05:20:43;;;;;;;22.25;12.50;;;;;;;6.21;83.02;99015.28;5048890;28;20048;-77
2021/04/19 05:23:13;;;;;;;22.85;12.88;;;;;;;6.11;83.89;99010.09;5056349;28;20056;-78
2021/04/19 05:25:40;;;;;;;28.48;14.30;;;;;;;5.99;83.14;98989.97;5051786;28;20132;-75
2021/04/19 05:28:07;;;;;;;22.90;11.95;;;;;;;5.99;83.49;99006.91;5043251;28;20099;-74
2021/04/19 05:30:33;;;;;;;26.05;13.48;;;;;;;6.21;83.95;99002.72;5046428;28;20028;-78
2021/04/19 05:32:59;;;;;;;27.45;12.43;;;;;;;6.23;83.04;99019.47;5054925;28;20033;-78
2021/04/19 05:35:26;;;;;;;24.98;14.02;;;;;;;6.32;81.81;99015.78;5055283;28;20052;-78
2021/04/19 05:37:52;;;;;;;25.42;13.80;;;;;;;6.38;82.13;99011.56;5049989;28;20037;-73
2021/04/19 05:40:19;;;;;;;25.15;13.23;;;;;;;6.41;82.19;99021.97;5035329;28;20013;-74
2021/04/19 05:42:45;;;;;;;22.80;14.18;;;;;;;6.19;83.37;99025.38;5037738;28;20037;-68
2021/04/19 05:45:15;;;;;;;27.02;14.00;;;;;;;6.31;82.82;99024.00;5044559;28;20071;-71
2021/04/19 05:47:43;;;;;;;25.73;13.75;;;;;;;6.17;83.88;99030.06;5039075;28;20495;-71
2021/04/19 05:50:09;;;;;;;30.40;14.73;;;;;;;6.25;84.66;99028.22;5037300;28;20039;-66
2021/04/19 05:52:35;;;;;;;26.98;15.55;;;;;;;6.23;85.11;99032.91;5044163;28;20390;-67
2021/04/19 05:55:01;;;;;;;25.40;15.32;;;;;;;6.17;85.52;99030.91;5053648;28;20059;-74
2021/04/19 05:57:33;;;;;;;28.27;15.95;;;;;;;6.24;86.19;99036.44;5043575;28;20053;-70
2021/04/19 06:00:27;;;;;;;29.10;15.40;;;;;;;6.19;85.89;99028.06;5041382;28;20025;-71
2021/04/19 06:03:06;;;;;;;30.98;15.15;;;;;;;6.24;84.99;99041.81;5032063;28;20064;-71
2021/04/19 06:05:37;;;;;;;;;;;;;;;6.34;85.71;99035.25;5038198;28;20028;-71
2021/04/19 06:08:23;;;;;;;27.35;15.93;;;;;;;6.37;84.47;99036.78;5049841;28;19966;-74
2021/04/19 06:10:52;;;;;;;31.42;16.10;;;;;;;6.44;83.86;99034.22;5037312;28;20496;-74
2021/04/19 06:13:20;;;;;;;;;;;;;;;6.59;82.53;99040.56;5045386;28;20107;-71
2021/04/19 06:15:49;;;;;;;33.33;14.93;;;;;;;6.80;81.91;99048.91;5059297;28;20406;-70
2021/04/19 06:18:18;;;;;;;;;;;;;;;6.89;81.84;99040.81;5038741;28;20068;-70
2021/04/19 06:20:45;;;;;;;25.73;14.75;;;;;;;6.87;82.25;99037.47;5030235;28;19917;-71
2021/04/19 06:23:10;;;;;;;28.15;14.93;;;;;;;6.78;83.53;99009.75;5041181;28;20112;-74
2021/04/19 06:25:35;;;;;;;27.63;14.32;;;;;;;6.89;83.59;99022.84;5037497;28;20554;-73
2021/04/19 06:28:06;;;;;;;22.92;14.13;;;;;;;6.96;83.71;99021.09;5040925;28;20017;-75
2021/04/19 06:30:44;;;;;;;24.25;14.25;;;;;;;7.00;83.93;99041.28;5045388;28;20039;-76
2021/04/19 06:33:17;;;;;;;27.45;14.88;;;;;;;6.87;83.09;99026.72;5047480;28;20029;-71
2021/04/19 06:35:44;;;;;;;26.63;15.20;;;;;;;6.95;83.24;99040.97;5023759;28;20048;-71
2021/04/19 06:38:09;;;;;;;22.90;13.68;;;;;;;6.92;82.60;99018.97;5024892;28;20419;-71
2021/04/19 06:40:37;;;;;;;26.27;15.40;;;;;;;7.09;82.92;99041.25;5040761;28;20032;-71
2021/04/19 06:43:03;;;;;;;26.33;14.32;;;;;;;7.08;81.65;99048.47;5037219;28;20032;-70
2021/04/19 06:45:29;;;;;;;27.55;15.27;;;;;;;6.99;81.66;99033.38;5042075;28;20478;-70
2021/04/19 06:47:57;;;;;;;33.10;16.63;;;;;;;7.03;82.39;99037.41;5039025;28;20025;-70
2021/04/19 06:50:22;;;;;;;28.35;15.93;;;;;;;7.24;80.58;99047.56;5039225;28;20021;-70
2021/04/19 06:52:48;;;;;;;27.63;16.00;;;;;;;7.19;81.46;99031.09;5040357;28;20517;-71
2021/04/19 06:55:18;;;;;;;28.17;16.50;;;;;;;7.37;80.91;99026.28;5038890;28;20111;-70
2021/04/19 06:57:49;;;;;;;31.38;16.48;;;;;;;7.33;81.95;99043.78;5033989;28;20159;-70
2021/04/19 07:00:16;;;;;;;28.50;15.70;;;;;;;7.30;81.69;99028.00;5039077;28;20116;-71
2021/04/19 07:03:01;;;;;;;25.75;15.23;;;;;;;7.35;80.37;99051.72;5040142;28;20973;-71
2021/04/19 07:05:37;;;;;;;29.15;16.00;;;;;;;7.19;81.04;99041.88;5040893;28;20017;-71
2021/04/19 07:08:20;;;;;;;29.42;16.35;;;;;;;7.15;81.30;99052.16;5039546;28;20064;-71
2021/04/19 07:10:47;;;;;;;26.00;15.77;;;;;;;7.03;80.00;99040.09;5027457;28;20025;-71
2021/04/19 07:13:14;;;;;;;27.52;15.57;;;;;;;6.97;79.62;99032.72;5036066;28;20045;-71
2021/04/19 07:15:44;;;;;;;32.42;17.20;;;;;;;6.94;80.95;99033.06;5038346;28;20476;-71
2021/04/19 07:18:09;;;;;;;27.98;16.10;;;;;;;6.95;81.37;99056.28;5024031;28;20031;-70
2021/04/19 07:20:35;;;;;;;27.15;16.40;;;;;;;6.85;81.52;99050.25;5043486;28;20029;-72
2021/04/19 07:23:00;;;;;;;33.65;17.13;;;;;;;6.73;82.26;99047.94;5045831;28;20032;-67
2021/04/19 07:25:27;;;;;;;30.30;18.05;;;;;;;6.73;82.14;99042.56;5023778;28;20082;-74
2021/04/19 07:27:54;;;;;;;32.92;16.83;;;;;;;6.84;82.73;99045.88;5049041;28;20021;-76
2021/04/19 07:30:19;;;;;;;31.30;17.63;;;;;;;6.92;82.25;99037.78;5039449;28;20055;-76
2021/04/19 07:32:45;;;;;;;27.33;16.23;;;;;;;7.07;81.04;99048.63;5042047;28;20064;-75
2021/04/19 07:35:12;;;;;;;29.90;16.15;;;;;;;6.97;80.96;99013.91;5048807;28;20494;-76
2021/04/19 07:37:38;;;;;;;30.45;16.20;;;;;;;7.24;80.76;99039.50;5036082;28;20021;-74
2021/04/19 07:40:06;;;;;;;35.60;15.95;;;;;;;7.24;80.68;99026.03;5033988;28;20020;-75
2021/04/19 07:42:37;;;;;;;30.27;15.65;;;;;;;7.39;80.00;99036.91;5032592;28;20419;-70
2021/04/19 07:45:04;;;;;;;28.77;16.10;;;;;;;7.69;79.99;99027.94;5042042;28;20479;-71
2021/04/19 07:47:35;;;;;;;28.17;14.65;;;;;;;7.84;79.12;99038.78;5040825;28;20045;-71
2021/04/19 07:50:14;;;;;;;27.15;15.45;;;;;;;7.98;78.04;99020.97;5027475;28;20166;-71
2021/04/19 07:52:55;;;;;;;25.38;14.95;;;;;;;8.42;77.08;99027.53;5040206;28;20025;-71
2021/04/19 07:55:22;;;;;;;35.80;15.07;;;;;;;8.59;75.95;99017.38;5040795;28;20565;-71
2021/04/19 07:57:48;;;;;;;27.08;14.48;;;;;;;8.89;75.50;99012.84;5018791;28;20115;-71
2021/04/19 08:00:34;;;;;;;23.92;13.85;;;;;;;8.70;74.71;99015.06;5038973;28;20493;-71
2021/04/19 08:03:05;;;;;;;28.80;14.32;;;;;;;8.15;75.66;99028.91;5038218;28;20755;-71
2021/04/19 08:05:39;;;;;;;25.15;15.25;;;;;;;7.82;77.53;99015.72;5023338;28;20423;-71
2021/04/19 08:08:07;;;;;;;30.08;15.65;;;;;;;7.64;78.57;99033.00;5040826;28;20103;-72
2021/04/19 08:10:34;;;;;;;26.05;14.98;;;;;;;7.47;78.98;99034.97;5037875;28;20084;-73
2021/04/19 08:13:06;;;;;;;28.50;16.20;;;;;;;7.42;80.13;99045.44;5039232;28;20020;-69
2021/04/19 08:15:33;;;;;;;25.60;16.02;;;;;;;7.32;80.34;99049.38;5033818;28;20037;-69
2021/04/19 08:18:05;;;;;;;26.48;15.77;;;;;;;7.33;81.09;99048.34;5038138;28;20119;-70
2021/04/19 08:20:31;;;;;;;30.92;16.42;;;;;;;7.21;80.58;99046.06;5044233;28;20490;-71
2021/04/19 08:23:08;;;;;;;30.70;16.92;;;;;;;7.16;81.79;99056.50;5039652;28;20483;-72
2021/04/19 08:25:39;;;;;;;29.65;16.25;;;;;;;7.14;81.87;99050.47;5039787;28;20028;-69
2021/04/19 08:28:10;;;;;;;27.90;16.45;;;;;;;6.90;83.65;99029.06;5039622;28;20048;-69
2021/04/19 08:30:37;;;;;;;31.00;16.73;;;;;;;7.08;82.30;99047.66;5041179;28;20029;-70
2021/04/19 08:33:04;;;;;;;25.27;14.88;;;;;;;7.16;82.35;99050.28;5020402;28;20039;-69
2021/04/19 08:35:30;;;;;;;29.38;16.42;;;;;;;7.15;82.23;99046.78;5044436;28;20090;-70
2021/04/19 08:37:58;;;;;;;32.63;16.25;;;;;;;7.15;81.71;99052.16;5041678;28;20025;-70
2021/04/19 08:40:26;;;;;;;30.25;16.38;;;;;;;7.18;82.57;99050.97;5044686;28;20499;-69
2021/04/19 08:42:53;;;;;;;28.02;16.63;;;;;;;7.11;81.71;99055.38;5039417;28;20049;-69
2021/04/19 08:45:18;;;;;;;27.63;16.20;;;;;;;7.07;82.29;99060.22;5041594;28;20057;-69
2021/04/19 08:47:45;;;;;;;29.00;16.15;;;;;;;6.97;82.10;99051.56;5041509;28;20053;-69
2021/04/19 08:50:17;;;;;;;27.63;16.45;;;;;;;7.01;82.42;99061.78;5040719;28;20030;-69
2021/04/19 08:52:43;;;;;;;32.28;17.50;;;;;;;6.99;82.35;99041.44;5042247;28;20053;-69
2021/04/19 08:55:10;;;;;;;30.05;16.88;;;;;;;7.19;82.08;99064.22;5040143;28;20072;-72
2021/04/19 08:57:36;;;;;;;30.52;16.40;;;;;;;7.11;81.62;99066.97;5032223;28;20035;-72
2021/04/19 09:00:02;;;;;;;29.05;16.48;;;;;;;6.99;81.79;99062.97;5040987;28;20104;-72
2021/04/19 09:02:28;;;;;;;32.92;17.05;;;;;;;6.85;82.55;99061.00;5024635;28;20116;-71
2021/04/19 09:05:14;;;;;;;30.30;18.35;;;;;;;6.96;83.41;99068.69;5040209;28;20096;-72
2021/04/19 09:07:46;;;;;;;30.13;17.00;;;;;;;6.73;83.20;99058.69;5032620;28;20029;-72
2021/04/19 09:10:19;;;;;;;40.40;18.63;;;;;;;6.74;83.26;99055.00;5044150;28;20031;-70
2021/04/19 09:12:46;;;;;;;33.40;16.95;;;;;;;7.00;83.20;99060.13;5036379;28;20589;-73
2021/04/19 09:15:33;;;;;;;30.48;18.45;;;;;;;7.21;82.37;99058.69;5048677;28;20029;-67
2021/04/19 09:18:09;;;;;;;34.17;16.60;;;;;;;7.32;81.57;99058.28;5040274;28;20049;-69
2021/04/19 09:20:45;;;;;;;32.65;16.85;;;;;;;7.50;81.26;99066.09;5038345;28;20029;-71
2021/04/19 09:23:27;;;;;;;29.60;16.20;;;;;;;7.75;80.80;99065.94;5042632;28;20032;-68
2021/04/19 09:25:54;;;;;;;29.42;16.30;;;;;;;7.78;80.31;99073.66;5042019;28;20044;-67
2021/04/19 09:28:41;;;;;;;26.38;15.50;;;;;;;7.95;79.39;99072.53;5038280;28;20025;-67
2021/04/19 09:31:08;;;;;;;26.58;15.48;;;;;;;8.04;79.30;99067.91;5044594;28;20411;-69
2021/04/19 09:33:34;;;;;;;30.67;16.15;;;;;;;7.85;79.71;99071.94;5046860;28;20025;-70
2021/04/19 09:36:00;;;;;;;26.88;15.82;;;;;;;8.00;79.71;99072.81;5045065;28;20068;-69
2021/04/19 09:38:34;;;;;;;29.08;16.10;;;;;;;8.00;79.90;99077.38;5049068;28;20033;-69
2021/04/19 09:41:04;;;;;;;27.10;15.90;;;;;;;8.10;78.95;99070.72;5047592;28;20060;-69
2021/04/19 09:43:54;;;;;;;30.15;16.58;;;;;;;8.02;79.49;99075.34;5041522;28;20113;-69
2021/04/19 09:46:19;;;;;;;32.95;16.88;;;;;;;7.83;80.54;99087.41;5050724;28;20433;-75
2021/04/19 09:48:46;;;;;;;27.80;16.67;;;;;;;8.00;80.45;99083.59;5051203;28;20024;-71
2021/04/19 09:51:21;;;;;;;33.03;16.08;;;;;;;7.73;80.19;99084.13;5049923;28;20498;-71
2021/04/19 09:53:59;;;;;;;29.15;16.30;;;;;;;7.85;80.19;99075.44;5046450;28;20037;-70
2021/04/19 09:56:28;;;;;;;34.47;18.20;;;;;;;7.69;80.40;99070.19;5049349;28;20029;-70
2021/04/19 09:58:54;;;;;;;29.90;16.83;;;;;;;7.83;81.18;99071.25;5050176;28;20025;-71
2021/04/19 10:01:21;;;;;;;28.67;16.52;;;;;;;7.88;79.40;99064.31;5047489;28;20033;-70
2021/04/19 10:03:50;;;;;;;27.67;15.90;;;;;;;7.97;78.99;99064.28;5050767;28;20052;-70
2021/04/19 10:06:20;;;;;;;29.02;15.68;;;;;;;8.13;78.49;99075.75;5049483;28;20037;-71
2021/04/19 10:08:48;;;;;;;32.85;16.42;;;;;;;8.07;77.66;99054.94;5048569;28;20087;-67
2021/04/19 10:11:15;;;;;;;30.63;15.73;;;;;;;8.11;78.35;99066.16;5042836;28;20368;-68
2021/04/19 10:13:41;;;;;;;29.55;17.00;;;;;;;8.41;77.72;99056.34;5072878;22;20476;-72
2021/04/19 10:16:10;;;;;;;31.05;15.85;;;;;;;8.47;76.48;99065.56;5071587;28;20020;-73
2021/04/19 10:18:37;;;;;;;28.27;15.43;;;;;;;8.49;76.45;99066.22;5070757;28;20032;-72
2021/04/19 10:21:05;;;;;;;33.47;15.65;;;;;;;8.49;77.25;99053.56;5070373;28;20271;-72
2021/04/19 10:23:41;;;;;;;27.83;15.05;;;;;;;8.81;76.13;99065.03;5053528;28;20036;-72
2021/04/19 10:26:08;;;;;;;27.05;15.60;;;;;;;8.68;76.39;99062.97;5030736;28;20057;-72
2021/04/19 10:28:37;;;;;;;28.67;15.75;;;;;;;8.69;76.38;99056.53;5050405;28;20071;-72
2021/04/19 10:31:06;;;;;;;27.02;15.10;;;;;;;8.73;76.37;99062.44;5032592;28;20044;-72
2021/04/19 10:33:31;;;;;;;23.13;15.38;;;;;;;8.90;75.86;99044.19;5046473;28;20025;-72
2021/04/19 10:35:57;;;;;;;26.60;15.85;;;;;;;8.76;75.88;99048.56;5047103;28;20036;-72
2021/04/19 10:38:29;;;;;;;30.67;17.10;;;;;;;8.82;76.57;99055.91;5049144;28;20394;-72
2021/04/19 10:41:00;;;;;;;26.83;16.20;;;;;;;8.82;76.46;99046.97;5050132;28;20425;-72
2021/04/19 10:43:25;;;;;;;29.00;15.98;;;;;;;9.10;76.33;99049.84;5048212;28;20482;-72
2021/04/19 10:45:51;;;;;;;28.38;16.30;;;;;;;9.19;75.52;99037.91;5050360;28;20040;-72
2021/04/19 10:48:22;;;;;;;23.92;14.90;;;;;;;9.65;74.02;99051.97;5048173;28;20028;-72
2021/04/19 10:50:51;;;;;;;28.20;15.82;;;;;;;9.95;72.80;99045.59;5049546;28;20051;-72
2021/04/19 10:53:33;;;;;;;26.30;15.90;;;;;;;10.18;71.62;99042.69;5048968;28;20033;-72
2021/04/19 10:56:01;;;;;;;27.48;14.90;;;;;;;10.13;72.03;99042.44;5040401;28;20040;-72
2021/04/19 10:58:28;;;;;;;28.52;14.55;;;;;;;10.21;70.74;99042.31;5050065;28;20394;-71
2021/04/19 11:00:54;;;;;;;31.95;15.90;;;;;;;10.42;69.88;99039.59;5048491;28;20032;-72
2021/04/19 11:03:19;;;;;;;23.92;14.75;;;;;;;10.27;70.45;99039.69;5047984;28;20029;-72
2021/04/19 11:05:45;;;;;;;25.25;14.82;;;;;;;10.30;70.70;99028.50;5048984;28;20032;-72
2021/04/19 11:08:10;;;;;;;25.15;15.25;;;;;;;10.46;69.75;99043.59;5042588;28;20044;-72
2021/04/19 11:10:35;;;;;;;24.25;15.10;;;;;;;10.31;70.72;99023.91;5046300;28;20116;-72
2021/04/19 11:13:06;;;;;;;24.25;13.50;;;;;;;10.99;68.71;99034.97;5048818;28;20033;-72
2021/04/19 11:15:36;;;;;;;24.20;14.25;;;;;;;10.66;69.28;99027.50;5047226;28;20024;-73
2021/04/19 11:18:18;;;;;;;29.10;16.52;;;;;;;11.00;68.51;99035.78;5048017;28;20594;-72
2021/04/19 11:20:45;;;;;;;30.75;16.70;;;;;;;10.47;70.34;99033.59;5048579;28;20098;-72
2021/04/19 11:23:32;;;;;;;24.00;13.93;;;;;;;10.77;69.28;99031.53;5046662;28;20117;-72
2021/04/19 11:25:59;;;;;;;25.85;14.18;;;;;;;10.52;69.57;99031.13;5047480;28;20386;-76
2021/04/19 11:28:31;;;;;;;22.70;13.88;;;;;;;10.58;68.98;99034.91;5049152;28;20029;-75
2021/04/19 11:30:58;;;;;;;22.30;13.50;;;;;;;10.40;69.98;99025.44;5068579;28;20726;-77
2021/04/19 11:33:28;;;;;;;22.48;13.82;;;;;;;10.59;70.57;99026.63;5052380;28;20089;-71
2021/04/19 11:36:03;;;;;;;22.67;14.27;;;;;;;10.43;70.97;99024.22;5053782;28;20107;-75